Time;durP1;ratioP1;P1;durP2;ratioP2;P2;SDS_P1;SDS_P2;PMS_P1;PMS_P2;Temp;Humidity;BMP_temperature;BMP_pressure;BME280_temperature;BME280_humidity;BME280_pressure;Samples;Min_cycle;Max_cycle;Signal;HPM_P1;HPM_P2
2021/01/18 00:11:58;;;;;;;51.23;26.40;;;3.90;99.90;;;;;;4881747;29;20504;-91
2021/01/18 00:14:25;;;;;;;44.50;24.30;;;3.90;99.90;;;;;;4879618;29;20564;-91
2021/01/18 00:16:52;;;;;;;50.67;28.67;;;3.90;99.90;;;;;;4883879;29;20771;-91
2021/01/18 00:19:18;;;;;;;45.13;25.77;;;3.80;99.90;;;;;;4871642;29;20476;-91
2021/01/18 00:21:46;;;;;;;45.37;24.63;;;3.80;99.90;;;;;;4865288;29;20956;-91
2021/01/18 00:24:13;;;;;;;42.00;24.27;;;3.80;99.90;;;;;;4876876;29;20950;-91
2021/01/18 00:26:40;;;;;;;38.27;21.47;;;3.90;99.90;;;;;;4884004;29;20523;-91
2021/01/18 00:29:08;;;;;;;41.33;22.47;;;3.70;99.90;;;;;;4869931;29;20970;-91
2021/01/18 00:31:35;;;;;;;33.70;20.83;;;3.70;99.90;;;;;;4866804;29;20467;-91
2021/01/18 00:34:02;;;;;;;31.33;19.83;;;3.70;99.90;;;;;;4881367;29;20471;-91
2021/01/18 00:36:30;;;;;;;30.97;20.93;;;3.70;99.90;;;;;;4880533;29;20923;-92
2021/01/18 00:38:57;;;;;;;34.73;18.30;;;3.70;99.90;;;;;;4882474;29;20485;-91
2021/01/18 00:41:23;;;;;;;28.63;16.40;;;3.70;99.90;;;;;;4879752;29;20472;-91
2021/01/18 00:43:50;;;;;;;26.47;15.43;;;3.70;99.90;;;;;;4883408;29;20829;-92
2021/01/18 00:46:20;;;;;;;18.80;11.30;;;3.60;99.90;;;;;;4878004;29;20475;-91
2021/01/18 00:48:49;;;;;;;22.67;11.90;;;3.50;99.90;;;;;;4872933;29;20472;-91
2021/01/18 00:51:17;;;;;;;21.03;11.77;;;3.40;99.90;;;;;;4883570;29;20569;-91
2021/01/18 00:53:44;;;;;;;17.00;9.93;;;3.30;99.90;;;;;;4887070;29;20482;-91
2021/01/18 00:56:15;;;;;;;12.50;11.00;;;3.20;99.90;;;;;;4883370;29;20844;-92
2021/01/18 00:58:43;;;;;;;16.50;10.10;;;3.30;99.90;;;;;;4887384;29;20929;-91
2021/01/18 01:01:10;;;;;;;15.73;11.03;;;3.30;99.90;;;;;;4873277;29;20476;-92
2021/01/18 01:03:39;;;;;;;16.90;10.47;;;3.30;99.90;;;;;;4869871;29;20490;-91
2021/01/18 01:06:06;;;;;;;18.47;12.27;;;3.20;99.90;;;;;;4883933;29;20471;-92
2021/01/18 01:08:33;;;;;;;21.23;12.03;;;3.30;99.90;;;;;;4885769;29;20573;-91
2021/01/18 01:10:59;;;;;;;17.63;12.27;;;3.30;99.90;;;;;;4868684;29;20559;-91
2021/01/18 01:13:26;;;;;;;19.73;12.07;;;3.30;99.90;;;;;;4873830;29;20791;-91
2021/01/18 01:15:53;;;;;;;19.03;14.00;;;3.30;99.90;;;;;;4868898;29;20557;-91
2021/01/18 01:18:20;;;;;;;22.57;14.97;;;3.40;99.90;;;;;;4871855;29;20478;-91
2021/01/18 01:20:48;;;;;;;23.40;15.50;;;3.40;99.90;;;;;;4868394;29;20484;-91
2021/01/18 01:23:15;;;;;;;20.50;16.83;;;3.30;99.90;;;;;;4874938;29;20473;-91
2021/01/18 01:25:42;;;;;;;29.60;16.33;;;3.30;99.90;;;;;;4886928;29;20484;-91
2021/01/18 01:28:09;;;;;;;27.70;18.23;;;3.40;99.90;;;;;;4873007;29;20472;-91
2021/01/18 01:30:36;;;;;;;30.30;18.37;;;3.40;99.90;;;;;;4867420;29;20857;-91
2021/01/18 01:33:02;;;;;;;24.10;17.80;;;3.40;99.90;;;;;;4880501;29;20475;-91
2021/01/18 01:35:29;;;;;;;26.57;17.67;;;3.40;99.90;;;;;;4886432;29;20480;-91
2021/01/18 01:37:59;;;;;;;25.70;16.00;;;3.40;99.90;;;;;;4867325;29;20510;-91
2021/01/18 01:40:29;;;;;;;20.40;15.07;;;3.50;99.90;;;;;;4869075;29;20934;-92
2021/01/18 01:43:00;;;;;;;26.20;17.20;;;3.40;99.90;;;;;;4883769;29;20450;-91
2021/01/18 01:45:27;;;;;;;37.93;19.70;;;3.40;99.90;;;;;;4885231;29;20530;-91
2021/01/18 01:47:55;;;;;;;28.53;18.30;;;3.40;99.90;;;;;;4867928;29;20475;-91
2021/01/18 01:50:26;;;;;;;35.63;20.53;;;3.40;99.90;;;;;;4880355;29;20760;-91
2021/01/18 01:52:57;;;;;;;31.03;19.20;;;3.50;99.90;;;;;;4869462;29;20463;-91
2021/01/18 01:55:29;;;;;;;31.43;22.43;;;3.50;99.90;;;;;;4880941;29;20889;-91
2021/01/18 01:57:57;;;;;;;39.03;24.03;;;3.60;99.90;;;;;;4861192;29;20511;-91
2021/01/18 02:00:36;;;;;;;39.70;23.93;;;3.60;99.90;;;;;;4871618;29;20492;-91
2021/01/18 02:03:05;;;;;;;38.07;24.77;;;3.60;99.90;;;;;;4867729;29;20544;-91
2021/01/18 02:05:33;;;;;;;44.33;27.63;;;3.60;99.90;;;;;;4881871;29;20528;-91
2021/01/18 02:08:00;;;;;;;39.90;26.93;;;3.60;99.90;;;;;;4884416;29;20908;-91
2021/01/18 02:10:29;;;;;;;49.60;28.27;;;3.60;99.90;;;;;;4884157;29;20584;-91
2021/01/18 02:12:59;;;;;;;51.07;28.90;;;3.60;99.90;;;;;;4881020;29;20539;-91
2021/01/18 02:15:39;;;;;;;30.20;20.97;;;3.70;99.90;;;;;;4884797;29;20789;-91
2021/01/18 02:18:42;;;;;;;32.40;22.53;;;3.60;99.90;;;;;;4878624;29;20495;-91
2021/01/18 02:21:39;;;;;;;32.47;19.17;;;3.50;99.90;;;;;;4867292;29;20539;-91
2021/01/18 02:24:49;;;;;;;37.13;22.20;;;3.50;99.90;;;;;;4867102;29;20458;-91
2021/01/18 02:27:51;;;;;;;37.87;21.40;;;3.50;99.90;;;;;;4872075;29;20466;-91
2021/01/18 02:30:41;;;;;;;41.00;22.67;;;3.50;99.90;;;;;;4875722;29;20915;-91
2021/01/18 02:33:41;;;;;;;36.50;23.30;;;3.60;99.90;;;;;;4869907;29;20465;-91
2021/01/18 02:36:17;;;;;;;42.73;24.50;;;3.60;99.90;;;;;;4866583;29;20481;-91
2021/01/18 02:38:55;;;;;;;58.10;27.60;;;3.60;99.90;;;;;;4875598;29;20601;-91
2021/01/18 02:41:38;;;;;;;47.93;25.60;;;3.60;99.90;;;;;;4884450;29;20906;-91
2021/01/18 02:44:07;;;;;;;38.93;23.23;;;3.60;99.90;;;;;;4866946;29;20989;-91
2021/01/18 02:46:37;;;;;;;31.90;21.10;;;3.60;99.90;;;;;;4868957;29;20475;-91
2021/01/18 02:49:06;;;;;;;35.57;22.63;;;3.60;99.90;;;;;;4885025;29;20470;-91
2021/01/18 02:51:37;;;;;;;36.87;22.00;;;3.60;99.90;;;;;;4882187;29;20471;-91
2021/01/18 02:54:04;;;;;;;32.13;19.23;;;3.60;99.90;;;;;;4877908;29;20473;-91
2021/01/18 02:56:33;;;;;;;35.00;20.47;;;3.60;99.90;;;;;;4881569;29;20491;-91
2021/01/18 02:59:02;;;;;;;35.40;20.30;;;3.60;99.90;;;;;;4884953;29;20545;-91
2021/01/18 03:01:49;;;;;;;41.47;20.57;;;3.60;99.90;;;;;;4881555;29;20466;-91
2021/01/18 03:04:33;;;;;;;32.60;19.67;;;3.60;99.90;;;;;;4886275;29;20491;-91
2021/01/18 03:07:08;;;;;;;39.50;20.30;;;3.60;99.90;;;;;;4866273;29;20464;-91
2021/01/18 03:09:41;;;;;;;37.20;21.27;;;3.60;99.90;;;;;;4870671;29;20484;-91
2021/01/18 03:12:12;;;;;;;34.23;20.57;;;3.60;99.90;;;;;;4865596;29;20456;-91
2021/01/18 03:14:46;;;;;;;36.07;21.50;;;3.60;99.90;;;;;;4870382;29;20480;-91
2021/01/18 03:17:20;;;;;;;32.37;20.40;;;3.60;99.90;;;;;;4866543;29;20802;-91
2021/01/18 03:19:48;;;;;;;34.13;20.60;;;3.60;99.90;;;;;;4875052;29;20481;-91
2021/01/18 03:22:23;;;;;;;43.13;21.30;;;3.60;99.90;;;;;;4884640;29;20478;-91
2021/01/18 03:24:50;;;;;;;35.67;21.37;;;3.60;99.90;;;;;;4881372;29;20569;-91
2021/01/18 03:27:17;;;;;;;41.83;22.90;;;3.60;99.90;;;;;;4883531;29;20470;-91
2021/01/18 03:29:44;;;;;;;33.03;21.10;;;3.60;99.90;;;;;;4865703;29;20935;-91
2021/01/18 03:32:13;;;;;;;35.67;22.67;;;3.60;99.90;;;;;;4867952;29;20498;-91
2021/01/18 03:34:44;;;;;;;31.83;22.90;;;3.60;99.90;;;;;;4865673;29;20939;-91
2021/01/18 03:37:12;;;;;;;37.30;22.70;;;3.60;99.90;;;;;;4880326;29;20498;-92
2021/01/18 03:39:43;;;;;;;42.57;22.50;;;3.60;99.90;;;;;;4865558;29;20483;-91
2021/01/18 03:42:24;;;;;;;38.40;23.20;;;3.60;99.90;;;;;;4871268;29;20471;-91
2021/01/18 03:44:51;;;;;;;34.07;24.10;;;3.60;99.90;;;;;;4885019;29;20483;-91
2021/01/18 03:47:17;;;;;;;37.17;24.07;;;3.60;99.90;;;;;;4873877;29;20472;-91
2021/01/18 03:49:44;;;;;;;44.63;24.03;;;3.50;99.90;;;;;;4878206;29;20474;-91
2021/01/18 03:52:11;;;;;;;39.93;24.80;;;3.60;99.90;;;;;;4874337;29;20474;-91
2021/01/18 03:54:39;;;;;;;39.80;25.07;;;3.60;99.90;;;;;;4869115;29;20936;-91
2021/01/18 03:57:06;;;;;;;37.43;23.20;;;3.60;99.90;;;;;;4869847;29;20505;-91
2021/01/18 03:59:32;;;;;;;36.00;23.83;;;3.60;99.90;;;;;;4868210;29;20477;-91
2021/01/18 04:01:59;;;;;;;34.90;21.13;;;3.60;99.90;;;;;;4868189;29;20466;-91
2021/01/18 04:04:26;;;;;;;35.43;23.00;;;3.50;99.90;;;;;;4866001;29;20543;-91
2021/01/18 04:06:53;;;;;;;41.57;24.00;;;3.50;99.90;;;;;;4868341;29;20471;-91
2021/01/18 04:09:20;;;;;;;37.23;22.60;;;3.60;99.90;;;;;;4884311;29;21038;-91
2021/01/18 04:11:47;;;;;;;33.43;23.27;;;3.60;99.90;;;;;;4883512;29;20499;-91
2021/01/18 04:14:14;;;;;;;41.17;23.47;;;3.60;99.90;;;;;;4884018;29;20460;-91
2021/01/18 04:16:41;;;;;;;41.80;23.70;;;3.60;99.90;;;;;;4880378;29;20799;-91
2021/01/18 04:19:08;;;;;;;38.20;24.30;;;3.50;99.90;;;;;;4884739;29;20481;-91
2021/01/18 04:21:37;;;;;;;35.60;25.87;;;3.60;99.90;;;;;;4880519;29;20478;-91
2021/01/18 04:24:05;;;;;;;37.00;22.67;;;3.60;99.90;;;;;;4887627;29;20485;-91
2021/01/18 04:26:32;;;;;;;37.13;22.93;;;3.60;99.90;;;;;;4873611;29;20482;-90
2021/01/18 04:29:00;;;;;;;39.30;24.40;;;3.60;99.90;;;;;;4869490;29;20520;-91
2021/01/18 04:31:27;;;;;;;39.83;25.53;;;3.60;99.90;;;;;;4886795;29;20475;-91
2021/01/18 04:33:54;;;;;;;44.63;24.70;;;3.60;99.90;;;;;;4886882;29;20499;-91
2021/01/18 04:36:21;;;;;;;36.23;23.80;;;3.60;99.90;;;;;;4884861;29;20470;-91
2021/01/18 04:38:48;;;;;;;39.93;24.13;;;3.50;99.90;;;;;;4887554;29;20503;-91
2021/01/18 04:41:15;;;;;;;37.73;24.40;;;3.50;99.90;;;;;;4868541;29;20727;-91
2021/01/18 04:43:41;;;;;;;55.20;23.17;;;3.50;99.90;;;;;;4872205;29;20532;-91
2021/01/18 04:46:12;;;;;;;38.77;22.37;;;3.60;99.90;;;;;;4887569;29;20462;-91
2021/01/18 04:48:39;;;;;;;38.67;22.23;;;3.50;99.90;;;;;;4882318;29;20471;-91
2021/01/18 04:51:08;;;;;;;40.20;23.87;;;3.60;99.90;;;;;;4887746;29;20483;-91
2021/01/18 04:53:40;;;;;;;31.87;21.53;;;3.50;99.90;;;;;;4885659;29;20465;-91
2021/01/18 04:56:37;;;;;;;32.30;21.33;;;3.50;99.90;;;;;;4887423;29;20897;-91
2021/01/18 04:59:06;;;;;;;35.40;22.13;;;3.60;99.90;;;;;;4882945;29;20475;-91
2021/01/18 05:01:41;;;;;;;31.67;21.00;;;3.50;99.90;;;;;;4883856;29;20463;-91
2021/01/18 05:04:20;;;;;;;37.87;21.87;;;3.50;99.90;;;;;;4886358;29;20470;-91
2021/01/18 05:06:49;;;;;;;33.20;19.87;;;3.50;99.90;;;;;;4882940;29;20459;-91
2021/01/18 05:09:29;;;;;;;36.60;21.77;;;3.50;99.90;;;;;;4868442;29;20539;-91
2021/01/18 05:11:57;;;;;;;34.77;21.53;;;3.50;99.90;;;;;;4876230;29;20544;-91
2021/01/18 05:14:24;;;;;;;33.20;20.83;;;3.50;99.90;;;;;;4887094;29;20881;-91
2021/01/18 05:16:57;;;;;;;39.53;23.43;;;3.50;99.90;;;;;;4883307;29;20489;-91
2021/01/18 05:19:25;;;;;;;38.33;22.90;;;3.50;99.90;;;;;;4886690;29;20481;-91
2021/01/18 05:21:52;;;;;;;31.30;21.60;;;3.50;99.90;;;;;;4882885;29;20509;-91
2021/01/18 05:24:21;;;;;;;30.97;22.90;;;3.50;99.90;;;;;;4884932;29;20839;-91
2021/01/18 05:27:08;;;;;;;38.13;22.80;;;3.60;99.90;;;;;;4871343;29;20530;-91
2021/01/18 05:29:37;;;;;;;41.63;25.30;;;3.60;99.90;;;;;;4870948;29;20474;-91
2021/01/18 05:32:20;;;;;;;49.27;25.90;;;3.60;99.90;;;;;;4887060;29;20482;-91
2021/01/18 05:34:47;;;;;;;41.97;29.90;;;3.60;99.90;;;;;;4875008;29;20476;-91
2021/01/18 05:37:14;;;;;;;42.00;24.40;;;3.50;99.90;;;;;;4867378;29;21022;-91
2021/01/18 05:39:41;;;;;;;49.53;27.87;;;3.50;99.90;;;;;;4878656;29;20496;-91
2021/01/18 05:42:19;;;;;;;39.33;25.40;;;3.50;99.90;;;;;;4886440;29;20482;-91
2021/01/18 05:44:47;;;;;;;39.20;26.07;;;3.50;99.90;;;;;;4874839;29;20918;-91
2021/01/18 05:47:15;;;;;;;41.80;27.03;;;3.50;99.90;;;;;;4869513;29;20550;-91
2021/01/18 05:49:44;;;;;;;49.60;25.20;;;3.50;99.90;;;;;;4883365;29;20520;-91
2021/01/18 05:52:24;;;;;;;45.43;25.97;;;3.50;99.90;;;;;;4883550;29;20483;-91
2021/01/18 05:54:52;;;;;;;35.80;24.10;;;3.50;99.90;;;;;;4884949;29;20461;-91
2021/01/18 05:57:19;;;;;;;36.43;24.13;;;3.50;99.90;;;;;;4882142;29;20497;-91
2021/01/18 05:59:46;;;;;;;34.20;24.50;;;3.50;99.90;;;;;;4871645;29;20850;-91
2021/01/18 06:02:23;;;;;;;34.83;23.30;;;3.50;99.90;;;;;;4874792;29;20473;-91
2021/01/18 06:04:52;;;;;;;37.60;23.07;;;3.50;99.90;;;;;;4886207;29;20444;-91
2021/01/18 06:07:23;;;;;;;49.47;25.97;;;3.50;99.90;;;;;;4872498;29;20473;-91
2021/01/18 06:09:51;;;;;;;39.60;23.93;;;3.50;99.90;;;;;;4867111;29;20902;-91
2021/01/18 06:12:22;;;;;;;41.07;25.00;;;3.50;99.90;;;;;;4870326;29;20478;-91
2021/01/18 06:15:07;;;;;;;44.60;25.17;;;3.60;99.90;;;;;;4877618;29;20492;-91
2021/01/18 06:17:37;;;;;;;37.03;23.67;;;3.60;99.90;;;;;;4885585;29;20496;-91
2021/01/18 06:20:05;;;;;;;38.90;23.23;;;3.60;99.90;;;;;;4881618;29;20478;-91
2021/01/18 06:22:32;;;;;;;42.83;24.00;;;3.50;99.90;;;;;;4867584;29;20483;-91
2021/01/18 06:25:14;;;;;;;36.13;24.10;;;3.60;99.90;;;;;;4873838;29;20501;-91
2021/01/18 06:27:42;;;;;;;40.83;23.27;;;3.60;99.90;;;;;;4865980;29;20471;-92
2021/01/18 06:30:22;;;;;;;38.77;23.97;;;3.60;99.90;;;;;;4877717;29;20857;-91
2021/01/18 06:32:52;;;;;;;34.63;24.87;;;3.60;99.90;;;;;;4866395;29;20468;-91
2021/01/18 06:35:27;;;;;;;40.90;24.53;;;3.50;99.90;;;;;;4867666;29;20455;-91
2021/01/18 06:38:00;;;;;;;41.33;25.67;;;3.60;99.90;;;;;;4879405;29;20558;-91
2021/01/18 06:40:28;;;;;;;47.00;23.67;;;3.50;99.90;;;;;;4891128;29;20538;-91
2021/01/18 06:42:56;;;;;;;35.37;24.80;;;3.50;99.90;;;;;;4885621;29;20475;-91
2021/01/18 06:45:30;;;;;;;36.80;25.30;;;3.60;99.90;;;;;;4868076;29;20484;-91
2021/01/18 06:47:59;;;;;;;45.30;23.53;;;3.50;99.90;;;;;;4870246;29;20537;-91
2021/01/18 06:50:30;;;;;;;38.37;24.93;;;3.50;99.90;;;;;;4885108;29;20586;-91
2021/01/18 06:53:01;;;;;;;40.57;24.90;;;3.60;99.90;;;;;;4882697;29;20459;-91
2021/01/18 06:55:33;;;;;;;48.67;23.27;;;3.60;99.90;;;;;;4885772;29;20911;-91
2021/01/18 06:58:10;;;;;;;38.23;24.37;;;3.60;99.90;;;;;;4878741;29;20505;-91
2021/01/18 07:00:41;;;;;;;44.53;22.67;;;3.60;99.90;;;;;;4883288;29;20473;-91
2021/01/18 07:03:37;;;;;;;35.17;21.97;;;3.60;99.90;;;;;;4868619;29;20578;-91
2021/01/18 07:06:23;;;;;;;35.47;24.47;;;3.60;99.90;;;;;;4879645;29;20481;-91
2021/01/18 07:08:52;;;;;;;37.63;23.10;;;3.60;99.90;;;;;;4877229;29;20457;-91
2021/01/18 07:11:19;;;;;;;46.20;26.67;;;3.60;99.90;;;;;;4870552;29;20500;-91
2021/01/18 07:13:50;;;;;;;43.87;24.70;;;3.50;99.90;;;;;;4869197;29;20510;-91
2021/01/18 07:16:19;;;;;;;38.83;24.17;;;3.60;99.90;;;;;;4868481;29;20913;-91
2021/01/18 07:18:52;;;;;;;38.17;23.23;;;3.60;99.90;;;;;;4866216;29;20575;-91
2021/01/18 07:21:20;;;;;;;38.13;25.43;;;3.60;99.90;;;;;;4866713;29;20838;-91
2021/01/18 07:23:55;;;;;;;41.73;25.53;;;3.70;99.90;;;;;;4866466;29;20525;-91
2021/01/18 07:26:37;;;;;;;49.80;26.47;;;3.70;99.90;;;;;;4877227;29;20471;-91
2021/01/18 07:29:06;;;;;;;48.23;24.50;;;3.60;99.90;;;;;;4876189;29;20474;-91
2021/01/18 07:31:35;;;;;;;44.43;25.50;;;3.60;99.90;;;;;;4866206;29;20482;-91
2021/01/18 07:34:04;;;;;;;40.63;24.63;;;3.60;99.90;;;;;;4867171;29;20536;-92
2021/01/18 07:36:32;;;;;;;41.30;26.03;;;3.60;99.90;;;;;;4865996;29;20476;-91
2021/01/18 07:39:00;;;;;;;41.17;25.30;;;3.60;99.90;;;;;;4868751;29;20543;-92
2021/01/18 07:41:38;;;;;;;42.47;25.27;;;3.60;99.90;;;;;;4866831;29;20462;-92
2021/01/18 07:44:37;;;;;;;41.70;23.30;;;3.60;99.90;;;;;;4873772;29;20533;-91
2021/01/18 12:41:34;;;;;;;21.43;8.20;;;5.60;99.90;;;;;;655652;23;21973;-86
2021/01/18 12:44:01;;;;;;;20.77;9.37;;;5.60;99.90;;;;;;4847902;29;20510;-92
2021/01/18 12:46:28;;;;;;;14.57;8.03;;;5.50;99.90;;;;;;4850491;29;20536;-91
2021/01/18 12:48:55;;;;;;;14.83;7.80;;;5.60;99.90;;;;;;4850894;29;20564;-92
2021/01/18 12:51:22;;;;;;;14.87;8.30;;;5.50;99.90;;;;;;4850383;29;20479;-91
2021/01/18 12:53:49;;;;;;;24.67;10.10;;;5.50;99.90;;;;;;4833644;29;20507;-92
2021/01/18 12:56:24;;;;;;;17.33;8.43;;;5.40;99.90;;;;;;4850073;29;20496;-91
2021/01/18 12:58:52;;;;;;;22.10;10.40;;;5.40;99.90;;;;;;4850471;29;20507;-91
2021/01/18 13:01:30;;;;;;;13.87;9.00;;;5.50;99.90;;;;;;4850131;29;20480;-91
2021/01/18 13:03:57;;;;;;;19.63;10.10;;;5.50;99.90;;;;;;4850164;29;20484;-91
2021/01/18 13:06:40;;;;;;;19.70;10.47;;;5.40;99.90;;;;;;4849604;29;20543;-91
2021/01/18 13:09:08;;;;;;;19.67;7.20;;;5.40;99.90;;;;;;4850042;29;20471;-91
2021/01/18 13:11:36;;;;;;;17.87;7.13;;;5.30;99.90;;;;;;4849634;29;20944;-92
2021/01/18 13:14:04;;;;;;;15.63;6.60;;;5.40;99.90;;;;;;4849701;29;20477;-91
2021/01/18 13:16:32;;;;;;;16.50;7.80;;;5.30;99.90;;;;;;4850269;29;20783;-91
2021/01/18 13:18:59;;;;;;;17.30;6.87;;;5.40;99.90;;;;;;4849949;29;20495;-91
2021/01/18 13:21:26;;;;;;;12.87;6.50;;;5.40;99.90;;;;;;4849760;29;20475;-92
2021/01/18 13:23:53;;;;;;;11.63;6.00;;;5.40;99.90;;;;;;4848562;29;20484;-91
2021/01/18 13:26:20;;;;;;;14.00;5.80;;;5.40;99.90;;;;;;4850250;29;20478;-91
2021/01/18 13:28:47;;;;;;;12.50;6.13;;;5.40;99.90;;;;;;4849132;29;20535;-91
2021/01/18 13:31:16;;;;;;;13.33;6.07;;;5.50;99.90;;;;;;4850002;29;20459;-92
2021/01/18 13:33:45;;;;;;;14.93;6.00;;;5.50;99.90;;;;;;4832676;29;20474;-91
2021/01/18 13:36:19;;;;;;;17.13;6.60;;;5.40;99.90;;;;;;4850003;29;20476;-91
2021/01/18 13:38:47;;;;;;;15.80;6.70;;;5.40;99.90;;;;;;4849080;29;20499;-91
2021/01/18 13:41:15;;;;;;;14.00;5.73;;;5.50;99.90;;;;;;4853437;29;20927;-92
2021/01/18 13:43:41;;;;;;;15.50;6.70;;;5.50;99.90;;;;;;4849234;29;20503;-91
2021/01/18 13:46:11;;;;;;;13.40;5.80;;;5.50;99.90;;;;;;4849275;29;20479;-91
2021/01/18 13:48:41;;;;;;;16.03;6.43;;;5.40;99.90;;;;;;4849159;29;20789;-91
2021/01/18 13:51:13;;;;;;;10.80;6.33;;;5.50;99.90;;;;;;4849003;29;20476;-91
2021/01/18 13:53:41;;;;;;;14.47;6.17;;;5.40;99.90;;;;;;4848790;29;20476;-91
2021/01/18 13:56:08;;;;;;;17.10;5.50;;;5.40;99.90;;;;;;4848777;29;20750;-91
2021/01/18 13:58:35;;;;;;;10.20;5.00;;;5.40;99.90;;;;;;4849570;29;20499;-91
2021/01/18 14:01:02;;;;;;;11.90;4.93;;;5.50;99.90;;;;;;4848746;29;20737;-91
2021/01/18 14:03:34;;;;;;;11.60;5.30;;;5.50;99.90;;;;;;4848676;29;20468;-91
2021/01/18 14:06:04;;;;;;;8.70;5.07;;;5.40;99.90;;;;;;4848896;29;20831;-91
2021/01/18 14:08:30;;;;;;;14.70;5.70;;;5.40;99.90;;;;;;4848426;29;20499;-91
2021/01/18 14:10:57;;;;;;;8.97;5.07;;;5.50;99.90;;;;;;4848547;29;20480;-91
2021/01/18 14:13:24;;;;;;;11.23;5.00;;;5.40;99.90;;;;;;4848136;29;20472;-91
2021/01/18 14:15:51;;;;;;;23.97;7.43;;;5.50;99.90;;;;;;4849042;29;20476;-91
2021/01/18 14:18:19;;;;;;;8.33;5.07;;;5.40;99.90;;;;;;4847526;29;20470;-91
2021/01/18 14:20:46;;;;;;;14.70;5.20;;;5.50;99.90;;;;;;4848416;29;20487;-91
2021/01/18 14:23:13;;;;;;;10.57;4.67;;;5.50;99.90;;;;;;4848358;29;20934;-91
2021/01/18 14:25:43;;;;;;;10.60;5.10;;;5.50;99.90;;;;;;4848332;29;20479;-91
2021/01/18 14:28:12;;;;;;;10.00;5.50;;;5.50;99.90;;;;;;4848746;29;20491;-91
2021/01/18 14:30:39;;;;;;;10.03;5.00;;;5.50;99.90;;;;;;4847585;29;20465;-91
2021/01/18 14:33:06;;;;;;;13.93;5.10;;;5.70;99.90;;;;;;4847256;29;20514;-91
2021/01/18 14:35:32;;;;;;;11.57;4.40;;;5.60;99.90;;;;;;4848666;29;21099;-91
2021/01/18 14:38:02;;;;;;;13.63;5.63;;;5.60;99.90;;;;;;4847547;29;20532;-91
2021/01/18 14:40:38;;;;;;;10.20;5.30;;;5.60;99.90;;;;;;4847816;29;20464;-91
2021/01/18 14:43:05;;;;;;;11.43;6.20;;;5.50;99.90;;;;;;4845213;29;20502;-91
2021/01/18 14:45:32;;;;;;;11.07;5.87;;;5.60;99.90;;;;;;4848997;29;20480;-90
2021/01/18 14:47:59;;;;;;;17.57;5.43;;;5.50;99.90;;;;;;4830262;29;20489;-91
2021/01/18 14:50:26;;;;;;;10.70;5.50;;;5.50;99.90;;;;;;4847075;29;20480;-91
2021/01/18 14:52:55;;;;;;;23.20;6.10;;;5.60;99.90;;;;;;4847364;29;20438;-92
2021/01/18 14:55:23;;;;;;;13.20;6.73;;;5.60;99.90;;;;;;4848323;29;20528;-92
2021/01/18 14:57:57;;;;;;;16.90;9.90;;;5.50;99.90;;;;;;4849157;29;20499;-92
2021/01/18 15:00:25;;;;;;;16.73;6.70;;;5.60;99.90;;;;;;4848482;29;20836;-92
2021/01/18 15:02:52;;;;;;;12.10;5.27;;;5.50;99.90;;;;;;4832166;29;20446;-93
2021/01/18 15:05:20;;;;;;;12.07;6.03;;;5.50;99.90;;;;;;4848140;29;20479;-92
2021/01/18 15:18:21;;;;;;;9.83;5.43;;;5.40;99.90;;;;;;4859826;29;20513;-90
2021/01/18 15:20:51;;;;;;;12.03;5.30;;;5.40;99.90;;;;;;4865087;29;20535;-90
2021/01/18 15:23:29;;;;;;;9.17;4.90;;;5.40;99.90;;;;;;4861189;29;20497;-90
2021/01/18 15:26:06;;;;;;;12.40;5.27;;;5.40;99.90;;;;;;4865261;29;20466;-90
2021/01/18 15:28:36;;;;;;;11.80;5.63;;;5.40;99.90;;;;;;4862112;29;20493;-89
2021/01/18 15:31:10;;;;;;;13.60;5.97;;;5.30;99.90;;;;;;4874343;29;20455;-90
2021/01/18 15:33:38;;;;;;;9.73;5.90;;;5.30;99.90;;;;;;4856906;29;20478;-90
2021/01/18 15:39:06;;;;;;;11.47;5.30;;;5.20;99.90;;;;;;4863590;29;20488;-90
2021/01/18 15:41:39;;;;;;;20.23;5.60;;;5.20;99.90;;;;;;4881074;29;20566;-90
2021/01/18 15:44:07;;;;;;;11.23;5.00;;;5.10;99.90;;;;;;4874774;29;20573;-90
2021/01/18 15:46:35;;;;;;;18.40;5.70;;;5.00;99.90;;;;;;4881735;29;20489;-90
2021/01/18 15:49:03;;;;;;;19.17;6.77;;;5.00;99.90;;;;;;4874360;29;20906;-91
2021/01/18 15:51:31;;;;;;;14.10;6.33;;;5.00;99.90;;;;;;4881334;29;20902;-90
2021/01/18 15:53:58;;;;;;;14.03;6.20;;;5.00;99.90;;;;;;4876535;29;20461;-91
2021/01/18 15:56:26;;;;;;;11.70;6.20;;;4.90;99.90;;;;;;4876190;29;20758;-91
2021/01/18 15:58:54;;;;;;;12.70;6.40;;;4.90;99.90;;;;;;4880971;29;20786;-91
2021/01/18 16:01:21;;;;;;;10.40;7.33;;;4.90;99.90;;;;;;4881712;29;20477;-91
2021/01/18 16:03:48;;;;;;;14.07;6.50;;;4.90;99.90;;;;;;4882057;29;20908;-91
2021/01/18 16:06:16;;;;;;;18.07;8.27;;;4.90;99.90;;;;;;4882610;29;20467;-90
2021/01/18 16:08:42;;;;;;;18.80;8.87;;;4.80;99.90;;;;;;4883805;29;20494;-91
2021/01/18 16:11:12;;;;;;;11.33;6.90;;;4.80;99.90;;;;;;4860245;29;20783;-91
2021/01/18 16:13:39;;;;;;;16.27;6.60;;;4.80;99.90;;;;;;4860462;29;20977;-91
2021/01/18 16:16:08;;;;;;;11.97;7.10;;;4.80;99.90;;;;;;4863999;29;20471;-90
2021/01/18 16:18:35;;;;;;;13.30;6.70;;;4.80;99.90;;;;;;4860102;29;20509;-91
2021/01/18 16:21:12;;;;;;;16.57;7.30;;;4.80;99.90;;;;;;4863032;29;20862;-91
2021/01/18 16:23:40;;;;;;;16.23;7.90;;;4.80;99.90;;;;;;4858918;29;20455;-91
2021/01/18 16:26:17;;;;;;;10.37;7.30;;;4.80;99.90;;;;;;4859292;29;20473;-91
2021/01/18 16:28:44;;;;;;;18.20;7.27;;;4.70;99.90;;;;;;4860085;29;20914;-91
2021/01/18 16:31:16;;;;;;;13.17;6.43;;;4.70;99.90;;;;;;4856804;29;20482;-91
2021/01/18 16:33:42;;;;;;;19.47;7.70;;;4.80;99.90;;;;;;4856990;29;20628;-91
2021/01/18 16:36:09;;;;;;;14.27;7.13;;;4.80;99.90;;;;;;4858634;29;20495;-91
2021/01/18 16:38:36;;;;;;;11.63;6.87;;;4.80;99.90;;;;;;4856744;29;20588;-91
2021/01/18 16:41:04;;;;;;;17.53;7.50;;;4.80;99.90;;;;;;4856474;29;20494;-91
2021/01/18 16:43:31;;;;;;;10.70;6.90;;;4.70;99.90;;;;;;4857740;29;20500;-91
2021/01/18 16:46:31;;;;;;;12.60;7.57;;;4.70;99.90;;;;;;4857136;29;20498;-91
2021/01/18 16:49:00;;;;;;;19.93;7.77;;;4.80;99.90;;;;;;4859207;29;20918;-91
2021/01/18 16:51:27;;;;;;;17.80;7.70;;;4.70;99.90;;;;;;4859960;29;20463;-90
2021/01/18 16:53:55;;;;;;;12.40;7.37;;;4.70;99.90;;;;;;4859916;29;20600;-91
2021/01/18 16:56:23;;;;;;;19.13;8.10;;;4.70;99.90;;;;;;4855070;29;20467;-91
2021/01/18 16:58:51;;;;;;;15.87;8.27;;;4.80;99.90;;;;;;4860789;29;20503;-91
2021/01/18 17:01:18;;;;;;;11.00;7.20;;;4.70;99.90;;;;;;4854816;29;20477;-91
2021/01/18 17:03:45;;;;;;;12.63;8.10;;;4.70;99.90;;;;;;4855556;29;20926;-91
2021/01/18 17:06:12;;;;;;;18.40;8.33;;;4.70;99.90;;;;;;4857855;29;20473;-91
2021/01/18 17:08:40;;;;;;;14.73;8.47;;;4.70;99.90;;;;;;4856286;29;20533;-91
2021/01/18 17:11:08;;;;;;;14.60;8.00;;;4.70;99.90;;;;;;4855975;29;20519;-91
2021/01/18 17:13:35;;;;;;;15.67;7.63;;;4.70;99.90;;;;;;4857352;29;20525;-91
2021/01/18 17:16:03;;;;;;;13.60;7.67;;;4.70;99.90;;;;;;4855324;29;20912;-90
2021/01/18 17:18:32;;;;;;;14.83;7.80;;;4.70;99.90;;;;;;4858193;29;20557;-91
2021/01/18 17:20:59;;;;;;;23.03;7.20;;;4.70;99.90;;;;;;4858365;29;20964;-91
2021/01/18 17:23:26;;;;;;;15.37;8.50;;;4.70;99.90;;;;;;4856275;29;20475;-91
2021/01/18 17:34:52;;;;;;;14.50;7.57;;;4.70;99.90;;;;;;4863757;29;20602;-91
2021/01/18 17:37:22;;;;;;;20.27;9.70;;;4.70;99.90;;;;;;4887961;29;20494;-92
2021/01/18 17:39:50;;;;;;;12.90;9.10;;;4.70;99.90;;;;;;4881703;29;20578;-91
2021/01/18 17:42:17;;;;;;;17.70;10.20;;;4.70;99.90;;;;;;4887568;29;20912;-92
2021/01/18 17:44:44;;;;;;;15.57;9.10;;;4.70;99.90;;;;;;4887647;29;20494;-91
2021/01/18 17:47:11;;;;;;;13.37;8.00;;;4.70;99.90;;;;;;4887467;29;20932;-91
2021/01/18 17:49:38;;;;;;;20.50;9.30;;;4.60;99.90;;;;;;4884130;29;20466;-91
2021/01/18 17:52:34;;;;;;;22.70;9.47;;;4.70;99.90;;;;;;4882780;29;20479;-92
2021/01/18 17:55:48;;;;;;;18.30;9.43;;;4.70;99.90;;;;;;4874765;29;20573;-92
2021/01/18 17:58:29;;;;;;;16.27;10.00;;;4.70;99.90;;;;;;4866229;29;20510;-92
